createdAt,value
2017-08-10T00:00:20.494Z,20.98
2017-08-10T00:01:30.473Z,20.9
2017-08-10T00:02:40.436Z,20.86
2017-08-10T00:03:50.644Z,21.01
2017-08-10T00:05:00.613Z,20.96
2017-08-10T00:06:10.886Z,21.05
2017-08-10T00:07:21.181Z,20.95
2017-08-10T00:08:31.449Z,20.86
2017-08-10T00:09:41.680Z,20.86
2017-08-10T00:10:51.964Z,20.88
2017-08-10T00:12:01.945Z,20.86
2017-08-10T00:13:12.229Z,20.96
2017-08-10T00:14:22.190Z,20.89
2017-08-10T00:15:32.711Z,20.89
2017-08-10T00:16:42.985Z,20.85
2017-08-10T00:17:53.256Z,20.9
2017-08-10T00:19:03.254Z,20.92
2017-08-10T00:20:13.541Z,20.9
2017-08-10T00:21:23.458Z,20.93
2017-08-10T00:22:33.723Z,20.93
2017-08-10T00:23:44.009Z,20.9
2017-08-10T00:24:53.675Z,20.92
2017-08-10T00:26:03.656Z,20.78
2017-08-10T00:27:14.191Z,20.77
2017-08-10T00:28:24.188Z,20.89
2017-08-10T00:29:34.163Z,20.85
2017-08-10T00:30:44.446Z,20.74
2017-08-10T00:31:54.732Z,20.73
2017-08-10T00:33:05.266Z,20.77
2017-08-10T00:34:15.224Z,20.74
2017-08-10T00:35:25.500Z,20.75
2017-08-10T00:36:35.477Z,20.71
2017-08-10T00:37:45.763Z,20.8
2017-08-10T00:38:56.285Z,20.77
2017-08-10T00:40:06.571Z,20.75
2017-08-10T00:41:16.541Z,20.77
2017-08-10T00:42:26.836Z,20.74
2017-08-10T00:43:37.124Z,20.75
2017-08-10T00:44:47.673Z,20.74
2017-08-10T00:45:57.337Z,20.66
2017-08-10T00:47:07.305Z,20.63
2017-08-10T00:48:17.579Z,20.67
2017-08-10T00:49:27.561Z,20.59
2017-08-10T00:50:38.077Z,20.63
2017-08-10T00:51:48.038Z,20.64
2017-08-10T00:52:58.337Z,20.64
2017-08-10T00:54:08.608Z,20.63
2017-08-10T00:55:18.259Z,20.64
2017-08-10T00:56:28.806Z,20.66
2017-08-10T00:57:39.086Z,20.6
2017-08-10T00:58:49.363Z,20.63
2017-08-10T00:59:59.341Z,20.64
2017-08-10T01:01:09.616Z,20.73
2017-08-10T01:02:19.838Z,20.73
2017-08-10T01:03:30.110Z,20.7
2017-08-10T01:04:40.391Z,20.71
2017-08-10T01:05:50.357Z,20.7
2017-08-10T01:07:00.638Z,20.64
2017-08-10T01:08:11.176Z,20.67
2017-08-10T01:09:21.464Z,20.7
2017-08-10T01:10:31.434Z,20.75
2017-08-10T01:11:41.424Z,20.74
2017-08-10T01:12:51.408Z,20.74
2017-08-10T01:14:01.937Z,20.8
2017-08-10T01:15:12.216Z,20.85
2017-08-10T01:16:22.502Z,20.86
2017-08-10T01:17:32.466Z,20.88
2017-08-10T01:18:42.758Z,20.83
2017-08-10T01:19:52.977Z,20.86
2017-08-10T01:21:03.257Z,20.83
2017-08-10T01:22:13.222Z,20.82
2017-08-10T01:23:23.184Z,20.88
2017-08-10T01:24:33.468Z,20.77
2017-08-10T01:25:43.682Z,20.74
2017-08-10T01:26:53.958Z,20.78
2017-08-10T01:28:03.941Z,20.71
2017-08-10T01:29:14.217Z,20.66
2017-08-10T01:30:24.495Z,20.63
2017-08-10T01:31:34.777Z,20.56
2017-08-10T01:32:44.738Z,20.42
2017-08-10T01:33:55.015Z,20.26
2017-08-10T01:35:05.289Z,20.32
2017-08-10T01:36:15.573Z,20.19
2017-08-10T01:37:26.103Z,20.11
2017-08-10T01:38:35.775Z,19.9
2017-08-10T01:39:45.748Z,19.81
2017-08-10T01:40:56.029Z,19.72
2017-08-10T01:42:06.293Z,19.55
2017-08-10T01:43:16.529Z,19.49
2017-08-10T01:44:26.811Z,19.38
2017-08-10T01:45:37.097Z,19.24
2017-08-10T01:46:47.391Z,19.16
2017-08-10T01:47:57.678Z,19.05
2017-08-10T01:49:08.215Z,18.86
2017-08-10T01:50:18.474Z,18.78
2017-08-10T01:51:28.754Z,18.71
2017-08-10T01:52:38.425Z,18.61
2017-08-10T01:53:48.703Z,18.57
2017-08-10T01:54:58.916Z,18.52
2017-08-10T01:56:09.216Z,18.6
2017-08-10T01:57:19.192Z,18.52
2017-08-10T01:58:29.473Z,18.43
2017-08-10T01:59:39.762Z,18.41
2017-08-10T02:00:50.296Z,18.46
2017-08-10T02:02:00.573Z,18.21
2017-08-10T02:03:10.562Z,18.27
2017-08-10T02:04:20.831Z,18.12
2017-08-10T02:05:31.105Z,18.09
2017-08-10T02:06:41.025Z,18.12
2017-08-10T02:07:51.307Z,18.09
2017-08-10T02:09:01.285Z,18.08
2017-08-10T02:10:11.567Z,18.11
2017-08-10T02:11:21.212Z,18.08
2017-08-10T02:12:31.740Z,18.02
2017-08-10T02:13:42.014Z,17.93
2017-08-10T02:14:52.293Z,17.82
2017-08-10T02:16:02.574Z,17.71
2017-08-10T02:17:12.850Z,17.78
2017-08-10T02:18:23.123Z,17.72
2017-08-10T02:19:33.420Z,17.6
2017-08-10T02:20:43.378Z,17.65
2017-08-10T02:21:53.652Z,17.63
2017-08-10T02:23:03.618Z,17.72
2017-08-10T02:24:13.901Z,17.84
2017-08-10T02:25:24.168Z,17.87
2017-08-10T02:26:34.160Z,17.86
2017-08-10T02:27:44.433Z,17.84
2017-08-10T02:28:54.713Z,17.84
2017-08-10T02:30:05.262Z,17.88
2017-08-10T02:31:15.556Z,17.79
2017-08-10T02:32:25.828Z,17.82
2017-08-10T02:33:36.114Z,17.75
2017-08-10T02:34:46.409Z,17.6
2017-08-10T02:35:56.362Z,17.52
2017-08-10T02:37:06.644Z,17.52
2017-08-10T02:38:16.939Z,17.37
2017-08-10T02:39:26.914Z,17.38
2017-08-10T02:40:36.883Z,17.38
2017-08-10T02:41:47.090Z,17.41
2017-08-10T02:42:57.368Z,17.37
2017-08-10T02:44:07.348Z,17.35
2017-08-10T02:45:17.633Z,17.35
2017-08-10T02:46:27.285Z,17.27
2017-08-10T02:47:37.525Z,17.17
2017-08-10T02:48:47.806Z,17.2
2017-08-10T02:49:57.767Z,17.16
2017-08-10T02:51:08.056Z,17.14
2017-08-10T02:52:18.334Z,16.95
2017-08-10T02:53:28.915Z,16.98
2017-08-10T02:54:39.178Z,16.99
2017-08-10T02:55:49.456Z,16.86
2017-08-10T02:56:59.724Z,16.83
2017-08-10T02:58:10.012Z,16.89
2017-08-10T02:59:20.542Z,16.8
2017-08-10T03:00:30.537Z,16.8
2017-08-10T03:01:40.818Z,16.76
2017-08-10T03:02:51.084Z,16.76
2017-08-10T03:04:01.404Z,16.69
2017-08-10T03:05:11.923Z,16.73
2017-08-10T03:06:21.883Z,16.65
2017-08-10T03:07:32.159Z,16.72
2017-08-10T03:08:42.419Z,16.66
2017-08-10T03:09:52.070Z,16.59
2017-08-10T03:11:02.620Z,16.58
2017-08-10T03:12:12.883Z,16.58
2017-08-10T03:13:22.868Z,16.61
2017-08-10T03:14:33.149Z,16.57
2017-08-10T03:15:43.418Z,16.51
2017-08-10T03:16:53.948Z,16.54
2017-08-10T03:18:04.231Z,16.54
2017-08-10T03:19:14.519Z,16.47
2017-08-10T03:20:24.788Z,16.51
2017-08-10T03:21:35.076Z,16.44
2017-08-10T03:22:45.599Z,16.49
2017-08-10T03:23:55.893Z,16.41
2017-08-10T03:25:06.177Z,16.4
2017-08-10T03:26:16.450Z,16.34
2017-08-10T03:27:26.741Z,16.44
2017-08-10T03:28:37.282Z,16.44
2017-08-10T03:29:47.563Z,16.4
2017-08-10T03:30:57.856Z,16.46
2017-08-10T03:32:07.824Z,16.43
2017-08-10T03:33:18.111Z,16.4
2017-08-10T03:34:28.332Z,16.39
2017-08-10T03:35:38.596Z,16.47
2017-08-10T03:36:48.883Z,16.47
2017-08-10T03:37:58.849Z,16.47
2017-08-10T03:39:09.135Z,16.44
2017-08-10T03:40:19.662Z,16.39
2017-08-10T03:41:29.638Z,16.44
2017-08-10T03:42:39.927Z,16.34
2017-08-10T03:43:50.191Z,16.43
2017-08-10T03:45:00.462Z,16.37
2017-08-10T03:46:10.993Z,16.44
2017-08-10T03:47:20.658Z,16.43
2017-08-10T03:48:30.315Z,16.43
2017-08-10T03:49:40.270Z,16.39
2017-08-10T03:50:50.557Z,16.44
2017-08-10T03:52:01.086Z,16.4
2017-08-10T03:53:11.056Z,16.4
2017-08-10T03:54:20.745Z,16.37
2017-08-10T03:55:30.705Z,16.32
2017-08-10T03:56:40.678Z,16.36
2017-08-10T03:57:50.879Z,16.26
2017-08-10T03:59:01.139Z,16.31
2017-08-10T04:00:11.117Z,16.26
2017-08-10T04:01:21.088Z,16.28
2017-08-10T04:02:31.380Z,16.29
2017-08-10T04:03:41.914Z,16.24
2017-08-10T04:04:52.203Z,16.24
2017-08-10T04:06:02.477Z,16.18
2017-08-10T04:07:12.782Z,16.26
2017-08-10T04:08:23.074Z,16.25
2017-08-10T04:09:33.282Z,16.26
2017-08-10T04:10:43.242Z,16.22
2017-08-10T04:11:52.887Z,16.24
2017-08-10T04:13:03.156Z,16.24
2017-08-10T04:14:13.430Z,16.28
2017-08-10T04:15:23.639Z,16.37
2017-08-10T04:16:33.915Z,16.32
2017-08-10T04:17:43.879Z,16.39
2017-08-10T04:18:54.151Z,16.46
2017-08-10T04:20:04.138Z,16.37
2017-08-10T04:21:14.066Z,16.41
2017-08-10T04:22:24.333Z,16.46
2017-08-10T04:23:34.603Z,16.43
2017-08-10T04:24:44.891Z,16.4
2017-08-10T04:25:55.174Z,16.4
2017-08-10T04:27:05.702Z,16.49
2017-08-10T04:28:15.980Z,16.46
2017-08-10T04:29:25.632Z,16.46
2017-08-10T04:30:35.600Z,16.4
2017-08-10T04:31:45.880Z,16.4
2017-08-10T04:32:56.144Z,16.54
2017-08-10T04:34:06.406Z,16.46
2017-08-10T04:35:16.705Z,16.41
2017-08-10T04:36:26.985Z,16.41
2017-08-10T04:37:37.264Z,16.4
2017-08-10T04:38:47.797Z,16.41
2017-08-10T04:39:57.775Z,16.44
2017-08-10T04:41:07.748Z,16.46
2017-08-10T04:42:17.722Z,16.58
2017-08-10T04:43:28.008Z,16.51
2017-08-10T04:44:38.233Z,16.57
2017-08-10T04:45:48.511Z,16.55
2017-08-10T04:46:58.492Z,16.57
2017-08-10T04:48:08.774Z,16.57
2017-08-10T04:49:18.753Z,16.55
2017-08-10T04:50:28.979Z,16.55
2017-08-10T04:51:39.249Z,16.55
2017-08-10T04:52:49.219Z,16.64
2017-08-10T04:53:59.481Z,16.61
2017-08-10T04:55:09.779Z,16.66
2017-08-10T04:56:20.065Z,16.68
2017-08-10T04:57:30.034Z,16.76
2017-08-10T04:58:40.003Z,16.69
2017-08-10T04:59:49.967Z,16.8
2017-08-10T05:01:00.260Z,16.8
2017-08-10T05:02:10.476Z,16.84
2017-08-10T05:03:20.456Z,16.94
2017-08-10T05:04:30.412Z,16.91
2017-08-10T05:05:40.389Z,16.95
2017-08-10T05:06:50.660Z,17.02
2017-08-10T05:08:00.893Z,17.12
2017-08-10T05:09:11.187Z,17.05
2017-08-10T05:10:21.464Z,17.1
2017-08-10T05:11:31.479Z,17.05
2017-08-10T05:12:41.428Z,17.16
2017-08-10T05:13:51.662Z,17.1
2017-08-10T05:15:01.960Z,17.12
2017-08-10T05:16:12.250Z,17.1
2017-08-10T05:17:22.539Z,17.09
2017-08-10T05:18:32.842Z,16.99
2017-08-10T05:19:43.358Z,17.01
2017-08-10T05:20:53.353Z,17.04
2017-08-10T05:22:03.658Z,17.09
2017-08-10T05:23:13.927Z,16.97
2017-08-10T05:24:24.210Z,17.07
2017-08-10T05:25:34.434Z,17.04
2017-08-10T05:26:44.100Z,17.12
2017-08-10T05:27:54.382Z,17.16
2017-08-10T05:29:04.357Z,17.2
2017-08-10T05:30:14.626Z,17.14
2017-08-10T05:31:24.907Z,17.23
2017-08-10T05:32:34.879Z,17.37
2017-08-10T05:33:45.171Z,17.34
2017-08-10T05:34:55.142Z,17.42
2017-08-10T05:36:05.108Z,17.49
2017-08-10T05:37:15.322Z,17.49
2017-08-10T05:38:25.594Z,17.52
2017-08-10T05:39:35.559Z,17.49
2017-08-10T05:40:45.204Z,17.42
2017-08-10T05:41:55.178Z,17.35
2017-08-10T05:43:05.711Z,17.34
2017-08-10T05:44:15.682Z,17.37
2017-08-10T05:45:25.974Z,17.27
2017-08-10T05:46:36.268Z,17.35
2017-08-10T05:47:46.537Z,17.27
2017-08-10T05:48:56.752Z,17.24
2017-08-10T05:50:06.716Z,17.24
2017-08-10T05:51:17.000Z,17.28
2017-08-10T05:52:26.963Z,17.27
2017-08-10T05:53:36.927Z,17.37
2017-08-10T05:54:47.498Z,17.38
2017-08-10T05:55:57.800Z,17.47
2017-08-10T05:57:08.087Z,17.52
2017-08-10T05:58:18.064Z,17.59
2017-08-10T05:59:28.640Z,17.66
2017-08-10T06:00:39.170Z,17.65
2017-08-10T06:01:49.444Z,17.68
2017-08-10T06:02:59.403Z,17.75
2017-08-10T06:04:09.695Z,17.75
2017-08-10T06:05:20.248Z,17.8
2017-08-10T06:06:30.481Z,17.82
2017-08-10T06:07:40.450Z,17.94
2017-08-10T06:08:50.423Z,18.02
2017-08-10T06:10:00.701Z,18
2017-08-10T06:11:10.695Z,18
2017-08-10T06:12:20.925Z,18.02
2017-08-10T06:13:31.214Z,18.12
2017-08-10T06:14:41.503Z,18.18
2017-08-10T06:15:51.795Z,18.23
2017-08-10T06:17:02.077Z,18.19
2017-08-10T06:18:12.599Z,18.39
2017-08-10T06:19:22.885Z,18.36
2017-08-10T06:20:33.170Z,18.36
2017-08-10T06:21:43.456Z,18.41
2017-08-10T06:22:53.433Z,18.46
2017-08-10T06:24:03.955Z,18.43
2017-08-10T06:25:13.923Z,18.41
2017-08-10T06:26:24.196Z,18.57
2017-08-10T06:27:34.482Z,18.7
2017-08-10T06:28:44.445Z,18.7
2017-08-10T06:29:54.969Z,18.78
2017-08-10T06:31:04.941Z,18.74
2017-08-10T06:32:15.211Z,18.85
2017-08-10T06:33:25.501Z,18.83
2017-08-10T06:34:35.793Z,18.98
2017-08-10T06:35:46.345Z,19.08
2017-08-10T06:36:56.621Z,19.08
2017-08-10T06:38:06.910Z,19.15
2017-08-10T06:39:17.210Z,19.17
2017-08-10T06:40:27.504Z,19.19
2017-08-10T06:41:38.050Z,19.17
2017-08-10T06:42:48.325Z,19.22
2017-08-10T06:43:58.635Z,19.29
2017-08-10T06:45:08.911Z,19.32
2017-08-10T06:46:19.174Z,19.41
2017-08-10T06:47:28.477Z,19.42
2017-08-10T06:48:38.758Z,19.52
2017-08-10T06:49:48.722Z,19.55
2017-08-10T06:50:59.187Z,19.56
2017-08-10T06:52:09.467Z,19.64
2017-08-10T06:53:19.697Z,19.67
2017-08-10T06:54:29.665Z,19.7
2017-08-10T06:55:39.956Z,19.78
2017-08-10T06:56:50.222Z,19.79
2017-08-10T06:58:00.195Z,19.77
2017-08-10T06:59:10.424Z,19.75
2017-08-10T07:00:20.712Z,19.77
2017-08-10T07:01:30.661Z,19.84
2017-08-10T07:02:40.937Z,19.79
2017-08-10T07:03:51.223Z,19.81
2017-08-10T07:05:01.760Z,19.78
2017-08-10T07:06:12.042Z,19.81
2017-08-10T07:07:22.325Z,19.84
2017-08-10T07:08:32.016Z,19.74
2017-08-10T07:09:42.305Z,19.81
2017-08-10T07:10:52.855Z,19.85
2017-08-10T07:12:03.148Z,19.87
2017-08-10T07:13:13.112Z,19.85
2017-08-10T07:14:22.776Z,19.92
2017-08-10T07:15:32.757Z,20
2017-08-10T07:16:43.014Z,19.94
2017-08-10T07:17:53.295Z,19.96
2017-08-10T07:19:03.557Z,19.99
2017-08-10T07:20:13.836Z,20.03
2017-08-10T07:21:23.828Z,19.9
2017-08-10T07:22:34.369Z,20.07
2017-08-10T07:23:44.352Z,20.15
2017-08-10T07:24:53.700Z,20.17
2017-08-10T07:26:03.048Z,20.11
2017-08-10T07:27:13.026Z,20.19
2017-08-10T07:28:23.563Z,20.19
2017-08-10T07:29:33.532Z,20.21
2017-08-10T07:30:43.808Z,20.24
2017-08-10T07:31:54.084Z,20.21
2017-08-10T07:33:04.362Z,20.21
2017-08-10T07:34:14.917Z,20.34
2017-08-10T07:35:25.205Z,20.32
2017-08-10T07:36:35.487Z,20.48
2017-08-10T07:37:45.769Z,20.52
2017-08-10T07:38:56.043Z,20.59
2017-08-10T07:40:06.591Z,20.68
2017-08-10T07:41:16.555Z,20.77
2017-08-10T07:42:26.522Z,20.89
2017-08-10T07:43:36.172Z,20.89
2017-08-10T07:44:46.444Z,21.03
2017-08-10T07:45:56.980Z,20.96
2017-08-10T07:47:06.950Z,21.03
2017-08-10T07:48:17.226Z,21
2017-08-10T07:49:27.506Z,21.03
2017-08-10T07:50:37.480Z,20.98
2017-08-10T07:51:48.006Z,21.03
2017-08-10T07:52:58.000Z,21
2017-08-10T07:54:08.292Z,21.14
2017-08-10T07:55:18.569Z,21.03
2017-08-10T07:56:28.843Z,21.1
2017-08-10T07:57:39.388Z,21.25
2017-08-10T07:58:49.668Z,21.25
2017-08-10T07:59:59.639Z,21.33
2017-08-10T08:01:09.925Z,21.3
2017-08-10T08:02:20.234Z,21.3
2017-08-10T08:03:30.773Z,21.3
2017-08-10T08:04:40.754Z,21.33
2017-08-10T08:05:50.730Z,21.28
2017-08-10T08:07:01.010Z,21.29
2017-08-10T08:08:11.309Z,21.3
2017-08-10T08:09:21.884Z,21.25
2017-08-10T08:10:31.592Z,21.25
2017-08-10T08:11:41.564Z,21.26
2017-08-10T08:12:51.845Z,21.35
2017-08-10T08:14:02.132Z,21.44
2017-08-10T08:15:12.736Z,21.44
2017-08-10T08:16:22.711Z,21.54
2017-08-10T08:17:33.003Z,21.63
2017-08-10T08:18:43.008Z,21.84
2017-08-10T08:19:52.997Z,21.99
2017-08-10T08:21:03.526Z,22.18
2017-08-10T08:22:13.820Z,22.18
2017-08-10T08:23:24.116Z,22.31
2017-08-10T08:24:34.098Z,22.36
2017-08-10T08:25:44.079Z,22.36
2017-08-10T08:26:54.614Z,22.46
2017-08-10T08:28:04.899Z,22.53
2017-08-10T08:29:15.188Z,22.47
2017-08-10T08:30:25.170Z,22.49
2017-08-10T08:31:35.468Z,22.4
2017-08-10T08:32:46.017Z,22.53
2017-08-10T08:33:56.303Z,22.56
2017-08-10T08:35:06.603Z,22.47
2017-08-10T08:36:16.912Z,22.62
2017-08-10T08:37:27.197Z,22.52
2017-08-10T08:38:37.793Z,22.73
2017-08-10T08:39:48.084Z,22.88
2017-08-10T08:40:58.044Z,23.04
2017-08-10T08:42:08.345Z,23.07
2017-08-10T08:43:18.326Z,23.08
2017-08-10T08:44:28.555Z,23.18
2017-08-10T08:45:38.544Z,23.47
2017-08-10T08:46:48.522Z,23.51
2017-08-10T08:47:58.193Z,23.62
2017-08-10T08:49:08.170Z,23.67
2017-08-10T08:50:18.695Z,23.81
2017-08-10T08:51:29.002Z,23.95
2017-08-10T08:52:38.680Z,24.1
2017-08-10T08:53:48.966Z,24.11
2017-08-10T08:54:58.925Z,24.34
2017-08-10T08:56:09.471Z,24.44
2017-08-10T08:57:20.097Z,24.51
2017-08-10T08:58:30.397Z,24.55
2017-08-10T08:59:40.688Z,24.36
2017-08-10T09:00:50.991Z,24.25
2017-08-10T09:02:01.555Z,24.32
2017-08-10T09:03:11.835Z,24.44
2017-08-10T09:04:22.131Z,24.61
2017-08-10T09:05:32.423Z,24.74
2017-08-10T09:06:42.714Z,24.77
2017-08-10T09:07:53.277Z,24.97
2017-08-10T09:09:03.553Z,25.18
2017-08-10T09:10:13.865Z,25.39
2017-08-10T09:11:24.173Z,25.49
2017-08-10T09:12:34.491Z,25.55
2017-08-10T09:13:45.081Z,25.63
2017-08-10T09:14:55.384Z,25.73
2017-08-10T09:16:05.672Z,25.86
2017-08-10T09:17:15.654Z,25.86
2017-08-10T09:18:25.951Z,25.99
2017-08-10T09:19:36.510Z,26.36
2017-08-10T09:20:46.488Z,26.53
2017-08-10T09:21:56.486Z,26.66
2017-08-10T09:23:06.453Z,26.83
2017-08-10T09:24:16.441Z,26.86
2017-08-10T09:25:26.980Z,26.98
2017-08-10T09:26:37.276Z,27.05
2017-08-10T09:27:47.591Z,27.18
2017-08-10T09:28:57.568Z,27.34
2017-08-10T09:30:07.869Z,27.47
2017-08-10T09:31:18.434Z,27.43
2017-08-10T09:32:28.407Z,27.1
2017-08-10T09:33:38.720Z,27.19
2017-08-10T09:34:48.703Z,27.25
2017-08-10T09:35:58.995Z,27.04
2017-08-10T09:37:09.546Z,27.04
2017-08-10T09:38:19.837Z,27.19
2017-08-10T09:39:30.144Z,27.18
2017-08-10T09:40:40.436Z,27.3
2017-08-10T09:41:50.421Z,27.13
2017-08-10T09:43:00.963Z,27.01
2017-08-10T09:44:11.269Z,27.01
2017-08-10T09:45:21.580Z,27.19
2017-08-10T09:46:31.883Z,27.19
2017-08-10T09:47:42.196Z,27.47
2017-08-10T09:48:52.470Z,27.71
2017-08-10T09:50:02.472Z,27.95
2017-08-10T09:51:12.452Z,28.2
2017-08-10T09:52:22.491Z,28.49
2017-08-10T09:53:32.467Z,29
2017-08-10T09:54:42.729Z,29.13
2017-08-10T09:55:53.010Z,29.42
2017-08-10T09:57:02.704Z,29.81
2017-08-10T09:58:12.674Z,30.14
2017-08-10T09:59:22.978Z,30.2
2017-08-10T10:00:33.570Z,29.87
2017-08-10T10:01:43.871Z,29.89
2017-08-10T10:02:54.199Z,29.84
2017-08-10T10:04:04.218Z,29.8
2017-08-10T10:05:14.196Z,29.99
2017-08-10T10:06:24.434Z,29.92
2017-08-10T10:07:34.418Z,29.64
2017-08-10T10:08:44.418Z,29.71
2017-08-10T10:09:54.710Z,29.86
2017-08-10T10:11:04.690Z,30.16
2017-08-10T10:12:15.288Z,30.54
2017-08-10T10:13:25.594Z,30.73
2017-08-10T10:14:35.884Z,30.8
2017-08-10T10:15:46.181Z,30.76
2017-08-10T10:16:56.484Z,30.93
2017-08-10T10:18:06.720Z,30.7
2017-08-10T10:19:16.706Z,30.93
2017-08-10T10:20:26.682Z,31.1
2017-08-10T10:21:36.682Z,31.32
2017-08-10T10:22:47.003Z,31.62
2017-08-10T10:23:57.233Z,32
2017-08-10T10:25:06.919Z,32
2017-08-10T10:26:16.904Z,31.78
2017-08-10T10:27:27.209Z,32.02
2017-08-10T10:28:37.222Z,32.07
2017-08-10T10:29:47.811Z,32.3
2017-08-10T10:30:58.107Z,32.41
2017-08-10T10:32:07.796Z,32.63
2017-08-10T10:33:18.112Z,32.61
2017-08-10T10:34:28.412Z,32.37
2017-08-10T10:35:38.963Z,32.45
2017-08-10T10:36:49.259Z,32.71
2017-08-10T10:37:59.566Z,32.67
2017-08-10T10:39:09.553Z,32.86
2017-08-10T10:40:19.851Z,33.03
2017-08-10T10:41:30.392Z,33.04
2017-08-10T10:42:40.389Z,32.63
2017-08-10T10:43:50.379Z,32.24
2017-08-10T10:45:00.681Z,32.26
2017-08-10T10:46:10.986Z,32.23
2017-08-10T10:47:21.238Z,32.08
2017-08-10T10:48:31.241Z,32.16
2017-08-10T10:49:41.535Z,32.27
2017-08-10T10:50:51.814Z,32.38
2017-08-10T10:52:01.805Z,32.56
2017-08-10T10:53:12.357Z,32.67
2017-08-10T10:54:22.645Z,32.86
2017-08-10T10:55:32.943Z,33.03
2017-08-10T10:56:43.234Z,33.26
2017-08-10T10:57:53.224Z,33.2
2017-08-10T10:59:03.464Z,32.94
2017-08-10T11:00:13.447Z,32.79
2017-08-10T11:01:23.425Z,33
2017-08-10T11:02:33.416Z,33.08
2017-08-10T11:03:43.404Z,33.36
2017-08-10T11:04:53.916Z,33.42
2017-08-10T11:06:04.198Z,33.04
2017-08-10T11:07:13.872Z,33.1
2017-08-10T11:08:23.227Z,33.08
2017-08-10T11:09:33.883Z,33.15
2017-08-10T11:10:44.141Z,33.35
2017-08-10T11:11:54.455Z,33.58
2017-08-10T11:13:04.765Z,33.98
2017-08-10T11:14:14.792Z,33.82
2017-08-10T11:15:24.760Z,33.45
2017-08-10T11:16:35.311Z,33.31
2017-08-10T11:17:45.017Z,33.26
2017-08-10T11:18:55.321Z,33.31
2017-08-10T11:20:05.659Z,33.09
2017-08-10T11:21:15.663Z,32.97
2017-08-10T11:22:25.952Z,32.71
2017-08-10T11:23:35.966Z,32.85
2017-08-10T11:24:45.973Z,33.2
2017-08-10T11:25:56.278Z,33.38
2017-08-10T11:27:06.574Z,33.75
2017-08-10T11:28:16.804Z,34.09
2017-08-10T11:29:27.122Z,34.22
2017-08-10T11:30:37.113Z,34.32
2017-08-10T11:31:47.101Z,34.35
2017-08-10T11:32:57.395Z,34.38
2017-08-10T11:34:07.961Z,34.46
2017-08-10T11:35:18.262Z,34.51
2017-08-10T11:36:28.593Z,34.63
2017-08-10T11:37:38.882Z,34.96
2017-08-10T11:38:48.877Z,35.1
2017-08-10T11:39:59.446Z,34.96
2017-08-10T11:41:09.433Z,34.98
2017-08-10T11:42:19.434Z,35.25
2017-08-10T11:43:29.745Z,35.38
2017-08-10T11:44:39.849Z,35.35
2017-08-10T11:45:50.550Z,35.22
2017-08-10T11:47:00.848Z,35.27
2017-08-10T11:48:11.185Z,35.64
2017-08-10T11:49:21.493Z,35.96
2017-08-10T11:50:31.164Z,36
2017-08-10T11:51:41.417Z,36.06
2017-08-10T11:52:51.717Z,36.11
2017-08-10T11:54:02.029Z,36.24
2017-08-10T11:55:12.324Z,36.06
2017-08-10T11:56:22.625Z,35.96
2017-08-10T11:57:32.914Z,35.81
2017-08-10T11:58:42.907Z,35.74
2017-08-10T11:59:52.865Z,35.91
2017-08-10T12:01:02.854Z,35.76
2017-08-10T12:02:13.156Z,35.74
2017-08-10T12:03:23.727Z,35.84
2017-08-10T12:04:33.713Z,35.86
2017-08-10T12:05:43.719Z,35.75
2017-08-10T12:06:54.012Z,35.68
2017-08-10T12:08:03.989Z,35.05
2017-08-10T12:09:13.928Z,34.78
2017-08-10T12:10:24.228Z,34.51
2017-08-10T12:11:34.514Z,34.41
2017-08-10T12:12:44.530Z,34.14
2017-08-10T12:13:54.820Z,34.18
2017-08-10T12:15:05.058Z,34.14
2017-08-10T12:16:14.727Z,34.29
2017-08-10T12:17:25.016Z,34.55
2017-08-10T12:18:35.317Z,34.71
2017-08-10T12:19:44.694Z,34.63
2017-08-10T12:20:55.297Z,34.38
2017-08-10T12:22:05.590Z,34.47
2017-08-10T12:23:15.885Z,34.51
2017-08-10T12:24:25.897Z,34.65
2017-08-10T12:25:36.203Z,33.95
2017-08-10T12:26:46.751Z,34.03
2017-08-10T12:27:56.752Z,34.44
2017-08-10T12:29:06.733Z,34.5
2017-08-10T12:30:16.108Z,34.69
2017-08-10T12:31:26.111Z,35.04
2017-08-10T12:32:36.677Z,35.57
2017-08-10T12:33:46.997Z,35.91
2017-08-10T12:34:57.301Z,35.94
2017-08-10T12:36:07.612Z,35.78
2017-08-10T12:37:17.945Z,35.88
2017-08-10T12:38:28.181Z,35.91
2017-08-10T12:39:37.860Z,35.81
2017-08-10T12:40:48.166Z,35.74
2017-08-10T12:41:58.462Z,35.78
2017-08-10T12:43:08.764Z,36.17
2017-08-10T12:44:19.010Z,36.33
2017-08-10T12:45:29.313Z,36.33
2017-08-10T12:46:39.608Z,36.67
2017-08-10T12:47:49.912Z,36.73
2017-08-10T12:49:00.207Z,36.72
2017-08-10T12:50:10.446Z,36.65
2017-08-10T12:51:20.742Z,36.55
2017-08-10T12:52:31.064Z,36.62
2017-08-10T12:53:41.065Z,36.66
2017-08-10T12:54:51.376Z,36.48
2017-08-10T12:56:01.643Z,36.18
2017-08-10T12:57:11.977Z,35.76
2017-08-10T12:58:21.981Z,35.68
2017-08-10T12:59:31.648Z,35.56
2017-08-10T13:00:41.955Z,35.52
2017-08-10T13:01:51.880Z,35.12
2017-08-10T13:03:02.192Z,35.03
2017-08-10T13:04:12.195Z,35.01
2017-08-10T13:05:22.173Z,34.65
2017-08-10T13:06:31.847Z,34.51
2017-08-10T13:07:42.401Z,34.62
2017-08-10T13:08:52.406Z,34.21
2017-08-10T13:10:02.707Z,33.84
2017-08-10T13:11:12.695Z,33.63
2017-08-10T13:12:23.007Z,33.51
2017-08-10T13:13:32.932Z,33.42
2017-08-10T13:14:43.230Z,33.53
2017-08-10T13:15:53.539Z,33.54
2017-08-10T13:17:03.541Z,33.32
2017-08-10T13:18:13.840Z,33.48
2017-08-10T13:19:24.464Z,33.48
2017-08-10T13:20:34.454Z,33.5
2017-08-10T13:21:44.758Z,33
2017-08-10T13:22:54.730Z,32.82
2017-08-10T13:24:05.024Z,32.76
2017-08-10T13:25:15.251Z,32.9
2017-08-10T13:26:25.228Z,32.93
2017-08-10T13:27:35.520Z,33.08
2017-08-10T13:28:45.818Z,33.16
2017-08-10T13:29:56.138Z,33.4
2017-08-10T13:31:06.379Z,33.35
2017-08-10T13:32:16.374Z,33.5
2017-08-10T13:33:26.676Z,33.84
2017-08-10T13:34:36.688Z,33.88
2017-08-10T13:35:46.668Z,34
2017-08-10T13:36:57.259Z,34.19
2017-08-10T13:38:07.249Z,34.32
2017-08-10T13:39:17.559Z,34.43
2017-08-10T13:40:27.537Z,34.66
2017-08-10T13:41:37.509Z,34.46
2017-08-10T13:42:48.063Z,34.73
2017-08-10T13:43:58.368Z,34.66
2017-08-10T13:45:08.660Z,34.53
2017-08-10T13:46:18.336Z,34.4
2017-08-10T13:47:28.349Z,34.37
2017-08-10T13:48:38.593Z,34.5
2017-08-10T13:49:48.896Z,34.51
2017-08-10T13:50:59.198Z,34.43
2017-08-10T13:52:09.173Z,34.37
2017-08-10T13:53:19.465Z,34.14
2017-08-10T13:54:29.706Z,34.16
2017-08-10T13:55:40.008Z,33.95
2017-08-10T13:56:49.991Z,34.02
2017-08-10T13:57:59.999Z,34.13
2017-08-10T13:59:10.319Z,34.4
2017-08-10T14:00:20.551Z,34.65
2017-08-10T14:01:30.525Z,34.7
2017-08-10T14:02:40.504Z,34.38
2017-08-10T14:03:50.798Z,34.28
2017-08-10T14:05:01.109Z,34.19
2017-08-10T14:06:11.654Z,34.18
2017-08-10T14:07:21.327Z,34.35
2017-08-10T14:08:31.632Z,34.47
2017-08-10T14:09:41.929Z,34.78
2017-08-10T14:10:52.241Z,34.94
2017-08-10T14:12:02.488Z,35.25
2017-08-10T14:13:12.778Z,35.52
2017-08-10T14:14:22.766Z,35.44
2017-08-10T14:15:33.039Z,35.31
2017-08-10T14:16:43.327Z,35.42
2017-08-10T14:17:53.878Z,35.38
2017-08-10T14:19:03.860Z,34.96
2017-08-10T14:20:14.178Z,34.88
2017-08-10T14:21:24.480Z,34.71
2017-08-10T14:22:34.460Z,34.58
2017-08-10T14:23:45.010Z,34.46
2017-08-10T14:24:55.331Z,34.4
2017-08-10T14:26:05.621Z,34.04
2017-08-10T14:27:15.302Z,33.69
2017-08-10T14:28:25.592Z,33.36
2017-08-10T14:29:36.124Z,33.28
2017-08-10T14:30:46.435Z,33.04
2017-08-10T14:31:56.725Z,32.73
2017-08-10T14:33:07.040Z,32.91
2017-08-10T14:34:17.348Z,33
2017-08-10T14:35:27.901Z,32.9
2017-08-10T14:36:37.881Z,32.93
2017-08-10T14:37:47.869Z,32.97
2017-08-10T14:38:58.178Z,33.15
2017-08-10T14:40:08.477Z,33.32
2017-08-10T14:41:19.085Z,33.29
2017-08-10T14:42:29.374Z,33.32
2017-08-10T14:43:39.684Z,33.08
2017-08-10T14:44:49.656Z,32.81
2017-08-10T14:45:59.955Z,32.73
2017-08-10T14:47:10.237Z,32.71
2017-08-10T14:48:20.213Z,32.63
2017-08-10T14:49:30.198Z,32.81
2017-08-10T14:50:40.188Z,33
2017-08-10T14:51:49.870Z,33.16
2017-08-10T14:53:00.464Z,33.35
2017-08-10T14:54:10.775Z,33.38
2017-08-10T14:55:21.068Z,33.31
2017-08-10T14:56:31.384Z,33.4
2017-08-10T14:57:41.070Z,33.6
2017-08-10T14:58:51.630Z,33.47
2017-08-10T15:00:01.926Z,33.36
2017-08-10T15:01:11.937Z,33.48
2017-08-10T15:02:22.228Z,33.5
2017-08-10T15:03:32.536Z,33.66
2017-08-10T15:04:42.144Z,33.66
2017-08-10T15:05:52.429Z,33.66
2017-08-10T15:07:02.112Z,33.65
2017-08-10T15:08:12.426Z,33.67